Time;durP1;ratioP1;P1;durP2;ratioP2;P2;SDS_P1;SDS_P2;PMS_P1;PMS_P2;Temp;Humidity;BMP_temperature;BMP_pressure;BME280_temperature;BME280_humidity;BME280_pressure;Samples;Min_cycle;Max_cycle;Signal;HPM_P1;HPM_P2
2021/05/15 00:00:01;;;;;;;;;15.00;14.00;;;;;18.80;51.11;98082.50;6259368;27;125119;-62
2021/05/15 00:03:03;;;;;;;;;13.75;13.00;;;;;18.81;51.02;98081.41;6252027;27;126612;-62
2021/05/15 00:06:05;;;;;;;;;15.50;13.75;;;;;18.80;51.04;98081.69;6248700;27;124874;-62
2021/05/15 00:09:08;;;;;;;;;13.50;12.50;;;;;18.78;51.00;98081.16;6247837;27;125219;-62
2021/05/15 00:12:10;;;;;;;;;15.40;14.00;;;;;18.79;51.13;98080.06;6249641;27;126076;-62
2021/05/15 00:15:12;;;;;;;;;13.80;13.00;;;;;18.50;51.30;98044.66;6227663;27;126468;-62
2021/05/15 00:18:14;;;;;;;;;14.00;13.20;;;;;18.75;51.30;98079.03;6241223;27;124949;-62
2021/05/15 00:21:15;;;;;;;;;12.00;12.00;;;;;18.73;51.16;98087.50;6258381;27;125227;-62
2021/05/15 00:24:17;;;;;;;;;13.00;12.80;;;;;18.69;51.42;98081.03;6260084;27;126156;-62
2021/05/15 00:27:19;;;;;;;;;13.40;12.00;;;;;18.65;51.53;98082.72;6258346;27;126368;-62
2021/05/15 00:30:21;;;;;;;;;13.00;12.60;;;;;18.53;51.69;98085.88;6258158;27;125294;-62
2021/05/15 00:33:22;;;;;;;;;13.00;12.00;;;;;18.55;51.73;98083.66;6227509;27;125392;-62
2021/05/15 00:36:24;;;;;;;;;13.60;13.00;;;;;18.57;51.68;98083.34;6249666;27;124786;-62
2021/05/15 00:39:26;;;;;;;;;14.00;13.00;;;;;18.56;51.63;98087.22;6259936;27;125378;-62
2021/05/15 00:42:28;;;;;;;;;14.00;13.00;;;;;18.66;51.39;98086.25;6258263;27;126224;-62
2021/05/15 00:45:29;;;;;;;;;15.00;13.20;;;;;18.67;51.20;98085.94;6217392;28;125639;-62
2021/05/15 00:48:31;;;;;;;;;14.00;13.00;;;;;18.70;51.14;98087.28;6236921;27;125143;-62
2021/05/15 00:51:32;;;;;;;;;13.40;13.00;;;;;18.74;51.21;98091.06;6257949;27;127003;-62
2021/05/15 00:54:37;;;;;;;;;12.60;11.00;;;;;18.69;51.07;98091.94;6258360;27;126273;-62
2021/05/15 00:57:40;;;;;;;;;12.00;12.00;;;;;18.70;51.43;98093.56;6241038;27;124028;-61
2021/05/15 01:00:41;;;;;;;;;14.40;13.60;;;;;18.49;51.51;98070.34;6251722;27;126222;-62
2021/05/15 01:03:43;;;;;;;;;15.25;14.25;;;;;18.65;51.46;98082.72;6240505;27;127418;-62
2021/05/15 01:06:45;;;;;;;;;14.00;14.00;;;;;18.61;51.47;98089.88;6252402;27;126622;-62
2021/05/15 01:09:47;;;;;;;;;14.00;14.00;;;;;18.55;51.32;98074.66;6255350;27;126514;-62
2021/05/15 01:12:52;;;;;;;;;15.60;14.60;;;;;18.76;51.20;98089.69;6257847;27;126782;-62
2021/05/15 01:15:53;;;;;;;;;13.00;13.00;;;;;18.73;51.14;98092.97;6259393;27;125633;-61
2021/05/15 01:18:55;;;;;;;;;14.00;12.25;;;;;18.69;51.26;98096.59;6258329;27;126492;-61
2021/05/15 01:21:57;;;;;;;;;16.00;15.00;;;;;18.71;51.03;98092.47;6244170;27;126704;-61
2021/05/15 01:24:58;;;;;;;;;15.00;14.00;;;;;18.68;51.19;98095.78;6259592;27;127062;-61
2021/05/15 01:28:00;;;;;;;;;14.00;13.60;;;;;18.66;51.27;98098.00;6233665;27;125349;-61
2021/05/15 01:31:02;;;;;;;;;13.80;13.00;;;;;18.67;51.51;98102.34;6261855;27;125342;-61
2021/05/15 01:34:04;;;;;;;;;14.50;14.00;;;;;18.66;51.42;98098.00;6239000;27;125313;-61
2021/05/15 01:37:06;;;;;;;;;15.25;13.00;;;;;18.76;51.11;98097.88;6242051;27;125013;-61
2021/05/15 01:40:09;;;;;;;;;15.80;14.20;;;;;18.82;50.86;98087.66;6260396;27;125385;-61
2021/05/15 01:43:11;;;;;;;;;13.00;12.25;;;;;18.82;50.84;98093.13;6260098;27;126442;-61
2021/05/15 01:46:13;;;;;;;;;15.00;14.00;;;;;18.85;50.79;98101.56;6260079;27;126696;-61
2021/05/15 01:49:15;;;;;;;;;14.00;13.00;;;;;18.81;50.74;98100.53;6259015;27;124996;-62
2021/05/15 01:52:17;;;;;;;;;14.00;12.80;;;;;18.84;50.97;98093.66;6252341;27;126438;-62
2021/05/15 01:55:21;;;;;;;;;14.60;14.00;;;;;18.87;50.82;98102.06;6261386;27;125157;-61
2021/05/15 01:58:24;;;;;;;;;12.60;11.00;;;;;18.86;50.66;98091.47;6257413;27;126094;-61
2021/05/15 02:01:28;;;;;;;;;12.00;12.00;;;;;18.89;50.64;98099.06;6246318;27;126057;-61
2021/05/15 02:04:30;;;;;;;;;12.20;11.20;;;;;18.89;50.70;98105.31;6261978;27;127028;-61
2021/05/15 02:07:33;;;;;;;;;11.00;10.00;;;;;18.86;50.46;98092.25;6261585;27;126512;-61
2021/05/15 02:10:34;;;;;;;;;10.00;10.00;;;;;18.86;50.48;98096.91;6244660;27;124322;-61
2021/05/15 02:13:36;;;;;;;;;9.00;8.00;;;;;18.81;50.41;98097.81;6260447;27;126687;-61
2021/05/15 02:16:37;;;;;;;;;10.40;10.40;;;;;18.84;50.30;98089.00;6257771;27;127152;-60
2021/05/15 02:19:39;;;;;;;;;10.00;10.00;;;;;18.84;50.35;98088.19;6262207;27;125224;-61
2021/05/15 02:22:41;;;;;;;;;11.40;10.40;;;;;18.84;50.08;98082.72;6260799;27;125344;-61
2021/05/15 02:25:43;;;;;;;;;10.00;9.00;;;;;18.79;50.08;98075.44;6261390;27;126677;-61
2021/05/15 02:28:46;;;;;;;;;9.50;9.00;;;;;18.82;50.20;98091.22;6244402;27;123872;-61
2021/05/15 02:31:47;;;;;;;;;8.25;8.00;;;;;18.83;50.15;98081.91;6262434;27;126507;-60
2021/05/15 02:34:48;;;;;;;;;9.20;9.00;;;;;18.81;50.10;98086.88;6260862;27;125675;-61
2021/05/15 02:37:51;;;;;;;;;10.00;8.00;;;;;18.84;49.91;98089.00;6256987;27;126293;-61
2021/05/15 02:40:54;;;;;;;;;6.50;6.50;;;;;18.84;49.58;98085.47;6246972;27;125207;-61
2021/05/15 02:43:55;;;;;;;;;6.00;6.00;;;;;18.85;49.34;98098.03;6260781;27;125626;-63
2021/05/15 02:46:57;;;;;;;;;7.00;6.75;;;;;18.86;49.27;98086.78;6257392;27;125367;-63
2021/05/15 02:50:00;;;;;;;;;6.60;6.60;;;;;18.82;49.23;98090.41;6243036;27;124311;-62
2021/05/15 02:53:03;;;;;;;;;6.00;6.00;;;;;18.83;49.09;98092.84;6262453;27;124292;-62
2021/05/15 02:56:04;;;;;;;;;7.00;6.00;;;;;18.81;49.22;98097.81;6260802;27;126162;-62
2021/05/15 02:59:07;;;;;;;;;6.00;6.00;;;;;18.79;49.08;98091.00;6260167;27;126900;-62
2021/05/15 03:02:09;;;;;;;;;7.00;7.00;;;;;18.79;49.15;98093.72;6240863;27;124382;-62
2021/05/15 03:05:12;;;;;;;;;7.00;6.25;;;;;18.77;49.08;98099.47;6260142;27;126478;-62
2021/05/15 03:08:15;;;;;;;;;6.00;5.60;;;;;18.77;49.18;98102.19;6259217;27;126120;-62
2021/05/15 03:11:16;;;;;;;;;7.40;7.00;;;;;18.73;49.29;98097.63;6243451;27;125899;-62
2021/05/15 03:14:18;;;;;;;;;6.00;6.00;;;;;18.75;49.34;98088.03;6225959;27;124059;-63
2021/05/15 03:17:19;;;;;;;;;5.50;5.50;;;;;18.74;49.27;98099.25;6260699;27;127065;-62
2021/05/15 03:20:23;;;;;;;;;6.00;6.00;;;;;18.77;49.13;98095.94;6261226;27;124740;-62
2021/05/15 03:23:26;;;;;;;;;7.00;7.00;;;;;18.76;48.91;98097.06;6260748;27;124615;-62
2021/05/15 03:26:28;;;;;;;;;8.00;7.00;;;;;18.73;48.83;98101.16;6258703;27;125370;-62
2021/05/15 03:29:29;;;;;;;;;6.00;5.60;;;;;18.76;48.84;98103.34;6241561;27;126569;-62
2021/05/15 03:32:31;;;;;;;;;5.00;5.00;;;;;18.80;48.75;98098.91;6253145;27;126267;-62
2021/05/15 03:35:32;;;;;;;;;6.00;5.00;;;;;18.83;48.52;98100.22;6259762;27;124573;-62
2021/05/15 03:38:34;;;;;;;;;6.00;6.00;;;;;18.85;48.84;98104.28;6260954;27;126628;-62
2021/05/15 03:41:36;;;;;;;;;6.80;5.80;;;;;18.84;48.87;98101.84;6261218;27;126213;-62
2021/05/15 03:44:38;;;;;;;;;7.40;6.40;;;;;18.82;49.11;98101.31;6256444;27;126699;-62
2021/05/15 03:47:39;;;;;;;;;7.00;7.00;;;;;18.88;48.97;98094.69;6259619;27;126757;-62
2021/05/15 03:50:41;;;;;;;;;7.00;6.60;;;;;18.93;48.93;98102.81;6258685;27;125396;-62
2021/05/15 03:53:43;;;;;;;;;8.60;8.00;;;;;18.96;48.77;98105.75;6261620;27;127316;-61
2021/05/15 03:56:45;;;;;;;;;8.00;7.00;;;;;19.06;48.98;98110.25;6259272;27;126302;-61
2021/05/15 03:59:46;;;;;;;;;8.60;7.80;;;;;19.13;48.55;98113.44;6253818;27;125419;-62
2021/05/15 04:02:48;;;;;;;;;7.00;7.00;;;;;19.21;48.23;98120.16;6257854;27;125128;-61
2021/05/15 04:05:50;;;;;;;;;7.00;7.00;;;;;19.29;47.92;98117.59;6258622;27;126613;-61
2021/05/15 04:08:52;;;;;;;;;7.00;7.00;;;;;19.32;47.78;98118.91;6241702;27;124124;-61
2021/05/15 04:11:54;;;;;;;;;6.00;5.40;;;;;19.32;47.46;98119.72;6236834;27;125083;-61
2021/05/15 04:15:02;;;;;;;;;8.00;7.00;;;;;19.46;47.40;98119.78;6240787;27;124340;-61
2021/05/15 04:18:07;;;;;;;;;7.00;6.40;;;;;19.52;47.45;98115.88;6253271;27;126003;-61
2021/05/15 04:21:08;;;;;;;;;8.40;8.40;;;;;19.56;47.11;98122.38;6241154;27;126083;-62
2021/05/15 04:24:11;;;;;;;;;7.00;6.00;;;;;19.62;46.98;98134.03;6259859;27;126791;-61
2021/05/15 04:27:13;;;;;;;;;7.25;7.00;;;;;19.65;46.87;98122.50;6242223;27;126689;-62
2021/05/15 04:30:15;;;;;;;;;6.00;6.00;;;;;19.78;46.71;98132.69;6259088;27;127213;-62
2021/05/15 04:33:19;;;;;;;;;7.75;7.00;;;;;19.86;46.17;98119.13;6241108;27;125534;-61
2021/05/15 04:36:21;;;;;;;;;6.80;6.80;;;;;19.84;46.30;98137.75;6258732;27;124557;-61
2021/05/15 04:39:24;;;;;;;;;6.00;6.00;;;;;19.84;45.78;98126.03;6259047;27;126019;-61
2021/05/15 04:42:25;;;;;;;;;7.00;6.00;;;;;19.90;45.83;98133.00;6259581;27;126260;-61
2021/05/15 04:45:30;;;;;;;;;5.00;5.00;;;;;19.82;45.74;98131.78;6258789;27;126308;-62
2021/05/15 04:48:33;;;;;;;;;5.80;5.80;;;;;19.75;46.03;98131.34;6241456;27;126169;-61
2021/05/15 04:51:35;;;;;;;;;7.00;6.00;;;;;19.74;45.86;98148.84;6250298;27;126413;-61
2021/05/15 04:54:37;;;;;;;;;8.00;6.40;;;;;19.77;45.90;98144.72;6236266;27;126208;-61
2021/05/15 04:57:39;;;;;;;;;7.50;7.00;;;;;19.71;45.85;98152.19;6253121;27;126420;-61
2021/05/15 05:00:40;;;;;;;;;7.00;6.00;;;;;19.82;45.93;98152.84;6219770;27;125472;-62
2021/05/15 05:03:41;;;;;;;;;6.00;5.50;;;;;19.62;45.51;98120.38;6214208;28;124451;-61
2021/05/15 05:06:43;;;;;;;;;6.00;5.00;;;;;19.89;45.17;98150.53;6232531;27;125782;-61
2021/05/15 05:09:45;;;;;;;;;7.60;7.60;;;;;19.95;45.43;98148.50;6249033;27;124909;-61
2021/05/15 05:12:47;;;;;;;;;5.80;5.40;;;;;20.04;44.89;98155.72;6246017;27;125376;-61
2021/05/15 05:15:48;;;;;;;;;6.00;6.00;;;;;20.09;44.97;98158.38;6262730;27;126347;-61
2021/05/15 05:18:50;;;;;;;;;5.20;5.20;;;;;20.07;44.28;98157.06;6259020;27;126111;-61
2021/05/15 05:21:52;;;;;;;;;6.40;6.40;;;;;20.05;44.18;98162.84;6218543;27;126308;-62
2021/05/15 05:24:55;;;;;;;;;6.00;5.40;;;;;20.07;44.11;98159.81;6238589;27;125441;-61
2021/05/15 05:27:57;;;;;;;;;5.00;4.00;;;;;20.13;44.18;98164.91;6250832;27;124936;-61
2021/05/15 05:30:58;;;;;;;;;5.00;5.00;;;;;20.24;44.05;98158.09;6242730;27;126379;-61
2021/05/15 05:34:00;;;;;;;;;5.00;5.00;;;;;20.40;43.91;98166.88;6227476;27;126834;-62
2021/05/15 05:37:01;;;;;;;;;5.00;5.00;;;;;20.51;43.62;98173.78;6231190;27;127926;-62
2021/05/15 05:40:05;;;;;;;;;6.00;5.00;;;;;20.53;43.08;98170.72;6207020;28;125364;-62
2021/05/15 05:43:08;;;;;;;;;5.00;5.00;;;;;20.68;43.22;98170.44;6216923;27;124525;-62
2021/05/15 05:46:10;;;;;;;;;6.00;5.75;;;;;20.81;42.82;98171.56;6233479;27;128304;-62
2021/05/15 05:49:11;;;;;;;;;6.40;5.40;;;;;20.89;42.04;98176.31;6208102;27;124325;-62
2021/05/15 05:52:14;;;;;;;;;5.60;5.40;;;;;20.89;41.88;98159.88;6246073;27;125365;-62
2021/05/15 05:55:16;;;;;;;;;6.60;6.60;;;;;21.12;41.89;98180.75;6246005;27;124953;-62
2021/05/15 05:58:17;;;;;;;;;7.00;7.00;;;;;21.21;40.74;98175.41;6247614;27;125907;-62
2021/05/15 06:01:19;;;;;;;;;6.00;6.00;;;;;21.20;41.00;98185.56;6261226;27;125225;-62
2021/05/15 06:04:21;;;;;;;;;7.00;6.00;;;;;21.22;40.77;98185.22;6245701;27;126895;-62
2021/05/15 06:07:22;;;;;;;;;7.75;6.75;;;;;21.35;40.49;98185.22;6236826;27;125499;-62
2021/05/15 06:10:25;;;;;;;;;7.00;7.00;;;;;21.32;40.54;98185.00;6227078;27;126836;-61
2021/05/15 06:13:26;;;;;;;;;7.50;7.50;;;;;21.34;39.91;98182.78;6235166;27;125124;-62
2021/05/15 06:16:28;;;;;;;;;7.40;7.00;;;;;21.41;40.03;98191.38;6227799;27;125086;-62
2021/05/15 06:19:30;;;;;;;;;10.00;8.00;;;;;21.26;39.99;98162.38;6209090;28;126437;-62
2021/05/15 06:22:31;;;;;;;;;9.00;8.00;;;;;21.51;40.60;98189.22;6253942;27;126710;-61
2021/05/15 06:25:33;;;;;;;;;9.00;9.00;;;;;21.51;39.83;98196.63;6203055;28;125568;-61
2021/05/15 06:28:35;;;;;;;;;10.80;10.00;;;;;21.55;39.58;98192.16;6252835;27;125326;-61
2021/05/15 06:31:37;;;;;;;;;12.00;9.00;;;;;21.54;40.27;98185.06;6238244;27;126631;-61
2021/05/15 06:34:38;;;;;;;;;10.60;9.20;;;;;21.83;40.08;98190.94;6254348;27;125434;-62
2021/05/15 06:37:40;;;;;;;;;10.00;9.00;;;;;22.11;40.45;98188.88;6234409;27;125128;-61
2021/05/15 06:40:43;;;;;;;;;9.40;9.00;;;;;22.19;39.68;98196.34;6203491;27;123449;-61
2021/05/15 06:43:44;;;;;;;;;8.20;8.00;;;;;22.27;38.97;98192.88;6246286;27;127237;-61
2021/05/15 06:46:46;;;;;;;;;11.00;9.60;;;;;22.40;38.64;98193.91;6203025;28;125302;-62
2021/05/15 06:49:49;;;;;;;;;11.00;10.00;;;;;22.35;38.11;98192.09;6205020;28;125115;-61
2021/05/15 06:52:50;;;;;;;;;8.75;8.25;;;;;22.56;38.58;98186.06;6236778;28;126262;-60
2021/05/15 06:55:53;;;;;;;;;9.00;9.00;;;;;22.68;38.16;98194.50;6218845;28;126591;-60
2021/05/15 06:58:54;;;;;;;;;8.00;8.00;;;;;22.77;37.72;98184.41;6236877;28;125151;-62
2021/05/15 07:01:55;;;;;;;;;7.00;7.00;;;;;22.88;38.09;98181.03;6236730;28;126502;-60
2021/05/15 07:04:57;;;;;;;;;8.40;7.80;;;;;23.15;38.25;98184.66;6219164;28;125288;-62
2021/05/15 07:07:58;;;;;;;;;10.00;10.00;;;;;23.33;37.22;98189.88;6218932;28;126573;-62
2021/05/15 07:11:02;;;;;;;;;8.00;8.00;;;;;23.27;36.31;98185.66;6236844;28;125064;-62
2021/05/15 07:14:04;;;;;;;;;8.60;7.60;;;;;23.32;36.75;98181.94;6242149;27;125457;-60
2021/05/15 07:17:05;;;;;;;;;7.00;7.00;;;;;23.53;37.53;98182.16;6220417;27;125954;-60
2021/05/15 07:20:08;;;;;;;;;9.60;8.00;;;;;23.72;36.47;98177.13;6216070;28;125337;-61
2021/05/15 07:23:10;;;;;;;;;8.20;8.00;;;;;23.98;35.63;98186.19;6235782;28;127122;-60
2021/05/15 07:26:12;;;;;;;;;6.40;6.40;;;;;24.11;34.60;98187.94;6218414;28;125734;-61
2021/05/15 07:29:13;;;;;;;;;8.00;7.00;;;;;24.24;35.26;98179.84;6235942;28;126578;-61
2021/05/15 07:32:15;;;;;;;;;7.00;6.80;;;;;24.36;34.54;98183.53;6235588;28;127072;-60
2021/05/15 07:35:17;;;;;;;;;7.00;7.00;;;;;24.58;35.74;98179.75;6233718;27;124419;-62
2021/05/15 07:38:21;;;;;;;;;7.00;7.00;;;;;24.74;34.07;98182.75;6233404;28;127010;-62
2021/05/15 07:41:25;;;;;;;;;8.00;7.50;;;;;24.82;35.29;98177.22;6234414;28;125884;-63
2021/05/15 07:44:26;;;;;;;;;7.00;6.40;;;;;24.83;33.74;98173.28;6217506;28;125764;-62
2021/05/15 07:47:29;;;;;;;;;7.00;7.00;;;;;24.96;33.76;98177.81;6236214;28;127790;-62
2021/05/15 07:50:31;;;;;;;;;8.00;7.67;;;;;25.09;33.36;98180.66;6221625;28;125087;-61
2021/05/15 07:53:33;;;;;;;;;9.80;8.40;;;;;25.09;33.32;98177.88;6212480;28;125339;-61
2021/05/15 07:56:36;;;;;;;;;7.00;7.00;;;;;25.12;33.50;98191.03;6230478;28;126457;-61
2021/05/15 07:59:37;;;;;;;;;7.00;7.00;;;;;25.19;33.36;98194.06;6233442;28;126872;-61
2021/05/15 08:02:39;;;;;;;;;5.25;5.25;;;;;25.03;33.01;98183.59;6233572;28;127122;-62
2021/05/15 08:05:40;;;;;;;;;4.00;4.00;;;;;25.05;32.32;98185.22;6227608;28;125415;-61
2021/05/15 08:08:42;;;;;;;;;5.25;5.00;;;;;25.01;32.39;98185.91;6210027;28;127217;-60
2021/05/15 08:11:44;;;;;;;;;7.00;6.00;;;;;25.08;32.28;98177.06;6235348;28;125151;-61
2021/05/15 08:14:46;;;;;;;;;7.00;7.00;;;;;25.26;32.31;98181.38;6234180;28;124965;-60
2021/05/15 08:17:47;;;;;;;;;7.00;6.60;;;;;25.60;32.84;98196.09;6234908;28;125983;-61
2021/05/15 08:20:49;;;;;;;;;6.00;6.00;;;;;25.70;32.22;98202.00;6234708;28;124629;-61
2021/05/15 08:23:52;;;;;;;;;5.00;4.20;;;;;25.60;32.16;98182.28;6234245;28;124909;-61
2021/05/15 08:26:55;;;;;;;;;5.00;5.00;;;;;25.56;31.76;98195.94;6216159;28;127152;-61
2021/05/15 08:30:00;;;;;;;;;7.00;7.00;;;;;25.83;31.92;98172.50;6233955;28;125072;-60
2021/05/15 08:33:01;;;;;;;;;6.00;5.50;;;;;26.04;31.38;98197.31;6229877;28;125034;-61
2021/05/15 08:36:03;;;;;;;;;5.40;5.00;;;;;26.25;31.10;98200.88;6233745;28;125167;-61
2021/05/15 08:39:06;;;;;;;;;8.40;8.00;;;;;26.41;30.15;98199.06;6215132;28;126618;-61
2021/05/15 08:42:08;;;;;;;;;6.00;6.00;;;;;26.64;29.81;98196.69;6234628;28;125204;-61
2021/05/15 08:45:13;;;;;;;;;7.00;7.00;;;;;26.68;29.34;98203.94;6234370;28;125003;-61
2021/05/15 08:48:15;;;;;;;;;7.00;6.25;;;;;26.56;29.04;98201.19;6233340;28;124816;-61
2021/05/15 08:51:17;;;;;;;;;6.25;6.00;;;;;26.63;29.82;98193.13;6236696;27;126693;-61
2021/05/15 08:54:19;;;;;;;;;8.00;8.00;;;;;26.68;30.11;98192.13;6256217;27;126624;-61
2021/05/15 08:57:22;;;;;;;;;6.60;6.60;;;;;26.44;30.26;98203.13;6258845;27;126872;-61
2021/05/15 09:00:26;;;;;;;;;6.00;6.00;;;;;26.92;30.02;98196.88;6260098;27;125362;-61
2021/05/15 09:03:27;;;;;;;;;7.00;6.00;;;;;27.06;29.57;98208.41;6259446;27;125889;-61
2021/05/15 09:06:30;;;;;;;;;6.00;6.00;;;;;27.14;28.58;98199.16;6259720;27;125195;-62
2021/05/15 09:09:32;;;;;;;;;6.00;5.60;;;;;27.28;28.26;98194.09;6258469;27;125113;-61
2021/05/15 09:12:36;;;;;;;;;6.00;6.00;;;;;27.22;28.38;98191.91;6257861;27;124729;-61
2021/05/15 09:15:42;;;;;;;;;5.20;5.20;;;;;27.34;28.38;98197.41;6255812;27;125863;-61
2021/05/15 09:18:45;;;;;;;;;6.00;6.00;;;;;27.63;28.92;98196.34;6253814;27;126628;-62
2021/05/15 09:21:59;;;;;;;;;6.00;6.00;;;;;27.72;28.23;98200.59;6259207;27;124271;-61
2021/05/15 09:25:04;;;;;;;;;5.00;5.00;;;;;28.12;29.91;98191.47;6257864;27;124574;-62
2021/05/15 09:28:07;;;;;;;;;6.00;6.00;;;;;28.26;28.71;98198.22;6257165;27;127478;-62
2021/05/15 09:31:22;;;;;;;;;6.40;6.40;;;;;28.61;27.57;98190.03;6251815;27;126947;-62
2021/05/15 09:34:24;;;;;;;;;5.00;5.00;;;;;28.78;26.49;98198.03;6252132;27;124763;-62
2021/05/15 09:37:29;;;;;;;;;5.00;5.00;;;;;28.94;25.75;98197.22;6257030;27;125646;-62
2021/05/15 09:40:32;;;;;;;;;5.00;4.00;;;;;29.02;26.06;98188.72;6252669;27;123443;-62
2021/05/15 09:43:51;;;;;;;;;6.00;5.00;;;;;29.14;26.25;98185.84;6253946;27;124554;-62
2021/05/15 09:46:57;;;;;;;;;6.00;6.00;;;;;29.01;27.15;98183.53;6258225;27;125826;-62
2021/05/15 09:50:11;;;;;;;;;6.00;6.00;;;;;28.95;26.81;98185.78;6258190;27;126762;-62
2021/05/15 09:53:15;;;;;;;;;4.50;4.50;;;;;29.00;25.97;98181.91;6259787;27;123926;-62
2021/05/15 09:56:29;;;;;;;;;5.00;5.00;;;;;29.02;27.09;98179.59;6258855;27;124589;-61
2021/05/15 09:59:34;;;;;;;;;7.00;7.00;;;;;29.14;26.70;98191.38;6259344;27;125298;-61
2021/05/15 10:02:37;;;;;;;;;6.00;6.00;;;;;29.22;26.96;98184.03;6258841;27;126725;-62
2021/05/15 10:05:40;;;;;;;;;7.00;7.00;;;;;29.16;25.74;98191.03;6244671;27;124579;-62
2021/05/15 10:08:44;;;;;;;;;5.60;5.40;;;;;29.14;26.15;98177.50;6256158;27;125859;-61
2021/05/15 10:11:47;;;;;;;;;5.25;5.25;;;;;29.33;26.34;98184.28;6260132;27;124674;-62
2021/05/15 10:14:51;;;;;;;;;5.20;5.20;;;;;29.37;26.55;98174.88;6259690;27;125172;-62
2021/05/15 10:17:53;;;;;;;;;6.00;5.60;;;;;29.29;25.32;98156.44;6260314;27;126719;-62
2021/05/15 10:20:57;;;;;;;;;7.00;6.00;;;;;29.06;25.52;98147.19;6259909;27;124393;-62
2021/05/15 10:24:00;;;;;;;;;5.00;5.00;;;;;29.14;26.62;98168.38;6249631;27;125842;-62
2021/05/15 10:27:04;;;;;;;;;6.00;5.40;;;;;29.03;25.85;98176.44;6259521;27;126212;-62
2021/05/15 10:30:20;;;;;;;;;6.00;6.00;;;;;28.87;25.49;98174.88;6253163;27;126693;-62
2021/05/15 10:33:30;;;;;;;;;4.00;4.00;;;;;29.08;25.22;98172.59;6253944;27;126110;-62
2021/05/15 10:36:45;;;;;;;;;5.00;5.00;;;;;29.25;24.30;98152.78;6251486;27;126985;-62
2021/05/15 10:39:49;;;;;;;;;5.60;5.60;;;;;29.32;25.80;98157.72;6246082;27;124591;-62
2021/05/15 10:42:58;;;;;;;;;6.40;5.00;;;;;28.83;26.62;98072.91;6258349;27;124387;-62
2021/05/15 10:46:14;;;;;;;;;7.00;6.40;;;;;29.20;25.78;98137.22;6256029;27;124756;-62
2021/05/15 10:49:20;;;;;;;;;6.00;6.00;;;;;29.38;25.21;98153.47;6231950;27;678443;-62
2021/05/15 10:52:24;;;;;;;;;5.00;5.00;;;;;29.42;25.00;98143.28;6258944;27;124727;-62
2021/05/15 10:55:32;;;;;;;;;5.00;5.00;;;;;29.35;25.04;98154.22;6253898;27;125948;-62
2021/05/15 10:58:39;;;;;;;;;5.00;4.60;;;;;29.22;24.67;98143.19;6253929;27;125504;-62
2021/05/15 11:01:46;;;;;;;;;4.60;4.60;;;;;29.21;24.94;98144.38;6260314;27;126447;-62
2021/05/15 11:04:51;;;;;;;;;5.00;5.00;;;;;29.10;25.52;98142.50;6260112;27;125873;-62
2021/05/15 11:07:53;;;;;;;;;5.40;5.40;;;;;28.68;25.20;98143.09;6258559;27;126296;-61
2021/05/15 11:11:06;;;;;;;;;5.00;5.00;;;;;28.60;25.94;98132.16;6264641;27;126751;-62
2021/05/15 11:14:28;;;;;;;;;5.00;5.00;;;;;28.52;26.44;98139.50;6262270;27;126997;-61
2021/05/15 11:17:32;;;;;;;;;5.00;4.80;;;;;28.36;26.05;98122.84;6245360;27;125403;-61
2021/05/15 11:20:41;;;;;;;;;6.00;6.00;;;;;28.08;26.48;98111.00;6260484;27;124746;-61
2021/05/15 11:23:48;;;;;;;;;4.00;4.00;;;;;27.91;26.71;98123.19;6260556;27;125829;-61
2021/05/15 11:26:51;;;;;;;;;5.00;5.00;;;;;27.62;27.99;98126.31;6258911;27;123718;-61
2021/05/15 11:30:07;;;;;;;;;5.00;5.00;;;;;27.36;27.67;98123.97;6261127;27;126111;-61
2021/05/15 11:33:13;;;;;;;;;5.00;5.00;;;;;27.39;27.59;98119.69;6258414;27;124845;-61
2021/05/15 11:36:17;;;;;;;;;5.50;5.50;;;;;27.34;27.81;98117.97;6259133;27;125980;-61
2021/05/15 11:39:20;;;;;;;;;5.40;5.00;;;;;27.40;28.17;98107.47;6256507;27;126407;-62
2021/05/15 11:42:28;;;;;;;;;5.00;5.00;;;;;27.55;27.21;98118.63;6245417;27;125602;-62
2021/05/15 11:45:32;;;;;;;;;6.00;5.20;;;;;27.64;26.52;98118.47;6249687;27;126798;-62
2021/05/15 11:48:39;;;;;;;;;5.00;5.00;;;;;27.65;27.04;98110.97;6247533;27;126045;-62
2021/05/15 11:51:42;;;;;;;;;10.40;10.40;;;;;27.87;26.77;98121.47;6245298;27;123904;-62
2021/05/15 11:54:48;;;;;;;;;6.00;6.00;;;;;27.85;26.10;98121.06;6249486;27;124047;-62
2021/05/15 11:57:56;;;;;;;;;5.00;5.00;;;;;27.70;26.75;98121.81;6247813;27;124795;-62
2021/05/15 12:00:58;;;;;;;;;5.00;5.00;;;;;27.63;26.73;98113.28;6250093;27;125824;-61
2021/05/15 12:04:07;;;;;;;;;6.00;6.00;;;;;27.53;27.02;98109.84;6230037;27;124899;-61
2021/05/15 12:07:14;;;;;;;;;6.20;5.20;;;;;27.40;26.91;98105.50;6247833;27;124720;-61
2021/05/15 12:10:20;;;;;;;;;4.50;4.50;;;;;27.13;27.49;98109.00;6248695;27;124316;-61
2021/05/15 12:13:22;;;;;;;;;5.50;5.50;;;;;27.10;26.82;98107.75;6249135;27;125771;-62
2021/05/15 12:16:26;;;;;;;;;5.00;5.00;;;;;26.96;27.44;98104.56;6251980;27;124852;-62
2021/05/15 12:19:29;;;;;;;;;5.00;5.00;;;;;26.95;27.59;98096.59;6245523;27;126841;-61
2021/05/15 12:22:32;;;;;;;;;4.00;4.00;;;;;27.00;28.27;98090.84;6247947;27;126011;-61
2021/05/15 12:25:36;;;;;;;;;4.00;4.00;;;;;27.12;28.24;98085.28;6245114;27;126559;-62
2021/05/15 12:28:43;;;;;;;;;5.50;5.50;;;;;27.20;27.65;98062.19;6250896;27;125288;-61
2021/05/15 12:31:46;;;;;;;;;6.00;6.00;;;;;27.32;28.38;98080.72;6244940;27;125887;-61
2021/05/15 12:34:58;;;;;;;;;4.00;4.00;;;;;27.38;27.88;98084.84;6247581;27;126040;-61
2021/05/15 12:38:01;;;;;;;;;6.00;6.00;;;;;27.35;27.53;98068.94;6260154;27;127121;-60
2021/05/15 12:41:09;;;;;;;;;5.00;4.80;;;;;27.28;27.36;98079.81;6260223;27;124956;-62
2021/05/15 12:44:13;;;;;;;;;5.20;5.00;;;;;27.00;27.83;98080.56;6259949;27;124654;-60
2021/05/15 12:47:16;;;;;;;;;5.00;5.00;;;;;27.01;27.71;98070.31;6258682;27;126079;-61
2021/05/15 12:50:26;;;;;;;;;6.00;6.00;;;;;27.18;27.76;98070.03;6259385;27;124909;-61
2021/05/15 12:53:29;;;;;;;;;7.00;6.00;;;;;27.33;27.89;98066.53;6233680;28;123623;-62
2021/05/15 12:56:36;;;;;;;;;5.75;5.00;;;;;27.46;27.97;98068.13;6249797;27;124800;-62
2021/05/15 12:59:40;;;;;;;;;6.00;6.00;;;;;27.65;28.18;98070.25;6234701;28;124667;-60
2021/05/15 13:02:56;;;;;;;;;6.00;6.00;;;;;27.96;26.82;98055.63;6253579;27;125967;-62
2021/05/15 13:06:11;;;;;;;;;6.00;6.00;;;;;28.20;26.40;98052.72;6259224;27;125828;-60
2021/05/15 13:09:14;;;;;;;;;4.00;4.00;;;;;28.42;26.43;98043.78;6257066;27;124806;-60
2021/05/15 13:12:17;;;;;;;;;5.60;5.00;;;;;28.46;25.97;98043.06;6258669;27;125974;-60
2021/05/15 13:15:20;;;;;;;;;4.60;4.60;;;;;28.76;27.11;98042.25;6255937;27;125045;-60
2021/05/15 13:18:23;;;;;;;;;4.00;4.00;;;;;29.14;27.17;98040.69;6263044;27;124966;-60
2021/05/15 13:21:27;;;;;;;;;5.00;5.00;;;;;29.24;24.72;98027.03;6263805;27;125264;-60
2021/05/15 13:24:30;;;;;;;;;6.00;6.00;;;;;29.40;25.36;98032.56;6263822;27;124617;-61
2021/05/15 13:27:33;;;;;;;;;9.60;8.00;;;;;29.25;24.01;98027.84;6262633;27;127562;-61
2021/05/15 13:30:35;;;;;;;;;5.00;5.00;;;;;29.13;23.83;97987.16;6263317;27;126176;-60
2021/05/15 13:33:38;;;;;;;;;5.00;5.00;;;;;29.33;23.81;98012.16;6261926;27;124482;-61
2021/05/15 13:36:42;;;;;;;;;5.00;4.00;;;;;29.28;24.22;98018.78;6262777;27;125397;-61
2021/05/15 13:39:45;;;;;;;;;4.80;4.80;;;;;29.33;24.24;98015.75;6263001;27;126255;-61
2021/05/15 13:42:47;;;;;;;;;5.00;5.00;;;;;29.31;24.13;98014.50;6260729;27;126452;-61
2021/05/15 13:45:50;;;;;;;;;4.00;4.00;;;;;29.25;24.22;98005.63;6263089;27;125482;-61
2021/05/15 13:48:54;;;;;;;;;6.00;5.00;;;;;28.65;25.92;97996.78;6260998;27;126720;-61
2021/05/15 13:51:58;;;;;;;;;5.00;5.00;;;;;28.35;26.14;98001.22;6251807;27;124511;-61
2021/05/15 13:55:00;;;;;;;;;6.00;5.00;;;;;28.02;26.41;98001.56;6249463;27;126013;-61
2021/05/15 13:58:03;;;;;;;;;7.00;5.00;;;;;27.70;25.99;97995.22;6249125;27;126502;-61
2021/05/15 14:01:08;;;;;;;;;5.00;5.00;;;;;27.78;26.16;97994.25;6258398;27;127385;-61
2021/05/15 14:04:11;;;;;;;;;5.00;4.00;;;;;27.63;26.13;97999.75;6262909;27;126553;-61
2021/05/15 14:07:14;;;;;;;;;5.00;4.60;;;;;27.84;26.00;97987.28;6262892;27;126342;-61